sensor_id;sensor_type;location;lat;lon;timestamp;pressure;altitude;pressure_sealevel;temperature;humidity
5679;BME280;2862;52.560;13.566;2023-06-10T00:08:02;100803.47;;;16.77;83.13
5679;BME280;2862;52.560;13.566;2023-06-10T00:18:08;100784.56;;;16.85;82.73
5679;BME280;2862;52.560;13.566;2023-06-10T00:28:13;100775.06;;;16.65;83.93
5679;BME280;2862;52.560;13.566;2023-06-10T00:38:16;100778.34;;;16.93;82.24
5679;BME280;2862;52.560;13.566;2023-06-10T00:48:20;100778.50;;;17.32;79.95
5679;BME280;2862;52.560;13.566;2023-06-10T00:58:24;100782.22;;;17.07;80.49
5679;BME280;2862;52.560;13.566;2023-06-10T01:08:33;100790.31;;;16.90;81.76
5679;BME280;2862;52.560;13.566;2023-06-10T01:18:40;100793.47;;;16.69;82.80
5679;BME280;2862;52.560;13.566;2023-06-10T01:28:48;100808.13;;;16.59;83.70
5679;BME280;2862;52.560;13.566;2023-06-10T01:38:55;100799.13;;;16.50;83.85
5679;BME280;2862;52.560;13.566;2023-06-10T01:49:00;100794.69;;;16.33;84.92
5679;BME280;2862;52.560;13.566;2023-06-10T01:59:03;100801.47;;;16.45;83.77
5679;BME280;2862;52.560;13.566;2023-06-10T02:09:07;100804.69;;;16.40;84.12
5679;BME280;2862;52.560;13.566;2023-06-10T02:19:10;100803.63;;;16.33;84.24
5679;BME280;2862;52.560;13.566;2023-06-10T02:29:15;100813.41;;;16.34;83.96
5679;BME280;2862;52.560;13.566;2023-06-10T02:39:18;100816.56;;;16.22;84.42
5679;BME280;2862;52.560;13.566;2023-06-10T02:49:23;100812.34;;;15.85;86.81
5679;BME280;2862;52.560;13.566;2023-06-10T02:59:30;100810.03;;;15.90;86.80
5679;BME280;2862;52.560;13.566;2023-06-10T03:09:35;100815.19;;;16.09;85.61
5679;BME280;2862;52.560;13.566;2023-06-10T03:19:39;100813.75;;;16.23;84.87
5679;BME280;2862;52.560;13.566;2023-06-10T03:29:44;100820.09;;;16.14;85.46
5679;BME280;2862;52.560;13.566;2023-06-10T03:39:47;100819.81;;;16.33;84.49
5679;BME280;2862;52.560;13.566;2023-06-10T03:49:52;100824.06;;;16.36;84.08
5679;BME280;2862;52.560;13.566;2023-06-10T03:59:55;100829.78;;;16.33;84.62
5679;BME280;2862;52.560;13.566;2023-06-10T04:10:01;100832.91;;;16.54;83.76
5679;BME280;2862;52.560;13.566;2023-06-10T04:20:05;100846.41;;;16.54;84.13
5679;BME280;2862;52.560;13.566;2023-06-10T04:30:14;100830.28;;;19.71;68.95
5679;BME280;2862;52.560;13.566;2023-06-10T04:40:18;100844.06;;;18.30;74.16
5679;BME280;2862;52.560;13.566;2023-06-10T04:50:23;100856.06;;;21.00;63.91
5679;BME280;2862;52.560;13.566;2023-06-10T05:00:27;100845.78;;;24.76;50.11
5679;BME280;2862;52.560;13.566;2023-06-10T05:10:31;100869.47;;;21.44;61.01
5679;BME280;2862;52.560;13.566;2023-06-10T05:20:35;100866.66;;;26.15;45.95
5679;BME280;2862;52.560;13.566;2023-06-10T05:30:40;100869.31;;;26.03;45.11
5679;BME280;2862;52.560;13.566;2023-06-10T05:40:43;100873.34;;;23.76;51.03
5679;BME280;2862;52.560;13.566;2023-06-10T05:50:47;100871.78;;;29.59;37.46
5679;BME280;2862;52.560;13.566;2023-06-10T06:00:50;100881.56;;;25.19;46.04
5679;BME280;2862;52.560;13.566;2023-06-10T06:10:55;100889.47;;;21.52;58.74
5679;BME280;2862;52.560;13.566;2023-06-10T06:20:58;100895.78;;;21.37;60.22
5679;BME280;2862;52.560;13.566;2023-06-10T06:31:02;100889.94;;;24.79;50.01
5679;BME280;2862;52.560;13.566;2023-06-10T06:41:05;100897.50;;;24.84;49.97
5679;BME280;2862;52.560;13.566;2023-06-10T06:51:09;100906.38;;;25.87;47.53
5679;BME280;2862;52.560;13.566;2023-06-10T07:01:12;100913.47;;;23.76;53.32
5679;BME280;2862;52.560;13.566;2023-06-10T07:11:17;100925.47;;;21.75;58.91
5679;BME280;2862;52.560;13.566;2023-06-10T07:21:20;100935.69;;;23.59;53.63
5679;BME280;2862;52.560;13.566;2023-06-10T07:31:25;100919.56;;;29.65;38.56
5679;BME280;2862;52.560;13.566;2023-06-10T07:41:28;100931.47;;;31.48;34.60
5679;BME280;2862;52.560;13.566;2023-06-10T07:51:32;100937.97;;;30.87;35.56
5679;BME280;2862;52.560;13.566;2023-06-10T08:01:34;100938.00;;;27.07;43.55
5679;BME280;2862;52.560;13.566;2023-06-10T08:11:41;100955.28;;;27.56;43.11
5679;BME280;2862;52.560;13.566;2023-06-10T08:21:44;100946.88;;;26.29;46.64
5679;BME280;2862;52.560;13.566;2023-06-10T08:31:48;100948.94;;;27.13;44.72
5679;BME280;2862;52.560;13.566;2023-06-10T08:42:00;100959.44;;;25.93;47.20
5679;BME280;2862;52.560;13.566;2023-06-10T08:52:11;100961.50;;;26.23;46.59
5679;BME280;2862;52.560;13.566;2023-06-10T09:02:17;100972.19;;;25.74;47.65
5679;BME280;2862;52.560;13.566;2023-06-10T09:12:23;100980.06;;;24.61;51.04
5679;BME280;2862;52.560;13.566;2023-06-10T09:22:26;100978.59;;;23.99;52.91
5679;BME280;2862;52.560;13.566;2023-06-10T09:32:31;100990.31;;;23.66;54.96
5679;BME280;2862;52.560;13.566;2023-06-10T09:42:34;100994.19;;;23.30;55.17
5679;BME280;2862;52.560;13.566;2023-06-10T09:52:39;100984.78;;;23.46;53.95
5679;BME280;2862;52.560;13.566;2023-06-10T10:02:46;100988.88;;;23.70;50.44
5679;BME280;2862;52.560;13.566;2023-06-10T10:12:56;100996.19;;;23.09;52.73
5679;BME280;2862;52.560;13.566;2023-06-10T10:23:03;100986.72;;;23.04;52.86
5679;BME280;2862;52.560;13.566;2023-06-10T10:33:12;100972.75;;;23.27;50.44
5679;BME280;2862;52.560;13.566;2023-06-10T10:43:16;100955.06;;;24.11;47.34
5679;BME280;2862;52.560;13.566;2023-06-10T10:53:21;100944.56;;;24.99;45.25
5679;BME280;2862;52.560;13.566;2023-06-10T11:03:28;100946.88;;;25.02;43.53
5679;BME280;2862;52.560;13.566;2023-06-10T11:13:33;100950.41;;;24.31;46.13
5679;BME280;2862;52.560;13.566;2023-06-10T11:23:41;100948.09;;;24.08;53.60
5679;BME280;2862;52.560;13.566;2023-06-10T11:33:47;100965.00;;;23.31;58.51
5679;BME280;2862;52.560;13.566;2023-06-10T11:43:50;100963.03;;;24.19;52.40
5679;BME280;2862;52.560;13.566;2023-06-10T11:53:54;100945.06;;;24.76;47.20
5679;BME280;2862;52.560;13.566;2023-06-10T12:04:02;100931.28;;;25.48;44.65
5679;BME280;2862;52.560;13.566;2023-06-10T12:14:07;100916.69;;;25.85;44.79
5679;BME280;2862;52.560;13.566;2023-06-10T12:24:10;100923.00;;;26.11;47.90
5679;BME280;2862;52.560;13.566;2023-06-10T12:34:15;100918.38;;;26.30;46.75
5679;BME280;2862;52.560;13.566;2023-06-10T12:44:27;100904.72;;;26.48;46.57
5679;BME280;2862;52.560;13.566;2023-06-10T12:54:37;100891.19;;;27.20;45.29
5679;BME280;2862;52.560;13.566;2023-06-10T13:04:43;100878.31;;;27.02;45.94
5679;BME280;2862;52.560;13.566;2023-06-10T13:14:50;100882.34;;;27.30;43.96
5679;BME280;2862;52.560;13.566;2023-06-10T13:24:55;100857.03;;;27.93;42.67
5679;BME280;2862;52.560;13.566;2023-06-10T13:34:59;100884.66;;;27.44;43.47
5679;BME280;2862;52.560;13.566;2023-06-10T13:45:08;100859.25;;;27.49;40.25
5679;BME280;2862;52.560;13.566;2023-06-10T13:55:16;100858.81;;;26.92;39.42
5679;BME280;2862;52.560;13.566;2023-06-10T14:05:20;100867.78;;;26.99;39.43
5679;BME280;2862;52.560;13.566;2023-06-10T14:15:24;100854.44;;;27.33;38.50
5679;BME280;2862;52.560;13.566;2023-06-10T14:25:29;100853.53;;;27.09;38.01
5679;BME280;2862;52.560;13.566;2023-06-10T14:35:33;100844.50;;;27.20;36.57
5679;BME280;2862;52.560;13.566;2023-06-10T14:45:37;100847.88;;;27.04;35.57
5679;BME280;2862;52.560;13.566;2023-06-10T14:55:42;100836.63;;;27.35;35.53
5679;BME280;2862;52.560;13.566;2023-06-10T15:05:44;100839.00;;;27.20;35.01
5679;BME280;2862;52.560;13.566;2023-06-10T15:15:49;100837.69;;;27.22;33.15
5679;BME280;2862;52.560;13.566;2023-06-10T15:25:52;100834.25;;;26.97;33.81
5679;BME280;2862;52.560;13.566;2023-06-10T15:35:59;100833.72;;;26.88;34.11
5679;BME280;2862;52.560;13.566;2023-06-10T15:46:02;100838.91;;;26.96;33.84
5679;BME280;2862;52.560;13.566;2023-06-10T15:56:07;100853.31;;;26.92;29.29
5679;BME280;2862;52.560;13.566;2023-06-10T16:06:12;100835.47;;;27.31;27.60
5679;BME280;2862;52.560;13.566;2023-06-10T16:16:17;100842.25;;;27.29;26.57
5679;BME280;2862;52.560;13.566;2023-06-10T16:26:23;100849.88;;;27.26;27.12
5679;BME280;2862;52.560;13.566;2023-06-10T16:36:27;100853.53;;;27.09;27.08
5679;BME280;2862;52.560;13.566;2023-06-10T16:46:29;100849.25;;;27.13;27.29
5679;BME280;2862;52.560;13.566;2023-06-10T16:56:33;100857.41;;;27.19;27.36
5679;BME280;2862;52.560;13.566;2023-06-10T17:06:36;100864.19;;;26.98;27.39
5679;BME280;2862;52.560;13.566;2023-06-10T17:16:41;100861.25;;;26.82;27.08
5679;BME280;2862;52.560;13.566;2023-06-10T17:26:43;100869.41;;;26.88;28.03
5679;BME280;2862;52.560;13.566;2023-06-10T17:36:48;100870.03;;;26.90;28.36
5679;BME280;2862;52.560;13.566;2023-06-10T17:46:51;100875.06;;;26.75;29.01
5679;BME280;2862;52.560;13.566;2023-06-10T17:56:55;100879.88;;;26.80;29.58
5679;BME280;2862;52.560;13.566;2023-06-10T18:06:58;100883.69;;;26.79;30.55
5679;BME280;2862;52.560;13.566;2023-06-10T18:17:03;100889.38;;;26.22;32.80
5679;BME280;2862;52.560;13.566;2023-06-10T18:27:07;100886.13;;;25.88;34.65
5679;BME280;2862;52.560;13.566;2023-06-10T18:37:12;100914.06;;;25.40;36.90
5679;BME280;2862;52.560;13.566;2023-06-10T18:47:14;100922.44;;;25.14;38.38
5679;BME280;2862;52.560;13.566;2023-06-10T18:57:18;100931.56;;;24.88;39.79
5679;BME280;2862;52.560;13.566;2023-06-10T19:07:22;100949.53;;;24.64;41.36
5679;BME280;2862;52.560;13.566;2023-06-10T19:17:26;100969.34;;;24.26;42.76
5679;BME280;2862;52.560;13.566;2023-06-10T19:27:29;100976.28;;;23.82;45.04
5679;BME280;2862;52.560;13.566;2023-06-10T19:37:33;100986.97;;;23.64;45.39
5679;BME280;2862;52.560;13.566;2023-06-10T19:47:36;100997.53;;;23.32;47.05
5679;BME280;2862;52.560;13.566;2023-06-10T19:57:41;100994.72;;;23.06;47.38
5679;BME280;2862;52.560;13.566;2023-06-10T20:07:44;101003.09;;;22.70;47.21
5679;BME280;2862;52.560;13.566;2023-06-10T20:17:48;101024.97;;;22.48;47.62
5679;BME280;2862;52.560;13.566;2023-06-10T20:27:53;101036.41;;;22.37;48.11
5679;BME280;2862;52.560;13.566;2023-06-10T20:37:57;101052.59;;;22.17;48.39
5679;BME280;2862;52.560;13.566;2023-06-10T20:48:00;101070.84;;;21.81;48.46
5679;BME280;2862;52.560;13.566;2023-06-10T20:58:05;101064.00;;;21.70;48.47
5679;BME280;2862;52.560;13.566;2023-06-10T21:08:08;101083.91;;;21.34;45.91
5679;BME280;2862;52.560;13.566;2023-06-10T21:18:12;101087.50;;;21.27;44.43
5679;BME280;2862;52.560;13.566;2023-06-10T21:28:15;101096.59;;;21.04;43.12
5679;BME280;2862;52.560;13.566;2023-06-10T21:38:20;101096.63;;;20.89;41.56
5679;BME280;2862;52.560;13.566;2023-06-10T21:48:25;101119.34;;;20.74;40.02
5679;BME280;2862;52.560;13.566;2023-06-10T21:58:30;101119.69;;;20.56;39.29
5679;BME280;2862;52.560;13.566;2023-06-10T22:08:33;101129.31;;;20.35;38.88
5679;BME280;2862;52.560;13.566;2023-06-10T22:18:38;101137.34;;;20.29;38.68
5679;BME280;2862;52.560;13.566;2023-06-10T22:28:41;101125.97;;;20.10;38.67
5679;BME280;2862;52.560;13.566;2023-06-10T22:38:46;101130.84;;;19.84;39.29
5679;BME280;2862;52.560;13.566;2023-06-10T22:48:50;101129.16;;;19.52;39.55
5679;BME280;2862;52.560;13.566;2023-06-10T22:58:55;101128.81;;;19.47;40.15
5679;BME280;2862;52.560;13.566;2023-06-10T23:08:58;101123.13;;;19.33;40.54
5679;BME280;2862;52.560;13.566;2023-06-10T23:19:02;101124.00;;;19.18;40.85
5679;BME280;2862;52.560;13.566;2023-06-10T23:29:06;101136.25;;;19.05;41.52
5679;BME280;2862;52.560;13.566;2023-06-10T23:39:11;101138.47;;;18.94;41.82
5679;BME280;2862;52.560;13.566;2023-06-10T23:49:14;101148.66;;;18.67;42.52
5679;BME280;2862;52.560;13.566;2023-06-10T23:59:18;101156.91;;;18.49;42.98
